Time;durP1;ratioP1;P1;durP2;ratioP2;P2;SDS_P1;SDS_P2;PMS_P1;PMS_P2;Temp;Humidity;BMP_temperature;BMP_pressure;BME280_temperature;BME280_humidity;BME280_pressure;Samples;Min_cycle;Max_cycle;Signal;HPM_P1;HPM_P2
2021/03/08 00:02:07;;;;;;;26.95;20.40;;;13.20;77.80;;;;;;5072894;28;20027;-71
2021/03/08 00:04:32;;;;;;;29.45;20.17;;;13.20;77.80;;;;;;5072867;28;20389;-71
2021/03/08 00:06:58;;;;;;;24.98;19.95;;;13.10;77.50;;;;;;5072962;28;20351;-72
2021/03/08 00:09:24;;;;;;;27.52;20.27;;;13.20;77.80;;;;;;5073156;28;20127;-76
2021/03/08 00:11:50;;;;;;;26.40;19.38;;;13.20;77.90;;;;;;5073256;28;20414;-79
2021/03/08 00:14:15;;;;;;;26.55;19.92;;;13.20;77.50;;;;;;5073726;28;20051;-77
2021/03/08 00:16:41;;;;;;;24.70;19.20;;;13.20;77.70;;;;;;5076547;28;20095;-72
2021/03/08 00:19:09;;;;;;;22.35;18.13;;;13.20;77.80;;;;;;5076544;28;20493;-74
2021/03/08 00:21:36;;;;;;;20.15;15.25;;;13.20;77.90;;;;;;5076762;28;20028;-73
2021/03/08 00:24:02;;;;;;;19.92;14.73;;;13.20;77.60;;;;;;5076680;28;20073;-79
2021/03/08 00:26:27;;;;;;;24.08;14.60;;;13.20;77.10;;;;;;5076663;28;20028;-74
2021/03/08 00:28:53;;;;;;;21.13;15.73;;;13.20;77.30;;;;;;5076635;28;20016;-77
2021/03/08 00:31:19;;;;;;;19.55;14.93;;;13.20;77.40;;;;;;5058894;28;20436;-74
2021/03/08 00:33:44;;;;;;;25.75;16.75;;;13.20;77.10;;;;;;5076601;28;20025;-73
2021/03/08 00:36:10;;;;;;;25.80;17.70;;;13.10;77.20;;;;;;5076534;28;20078;-75
2021/03/08 00:38:36;;;;;;;28.52;19.58;;;13.00;77.30;;;;;;5077065;28;20442;-76
2021/03/08 00:41:02;;;;;;;28.02;19.10;;;13.00;77.40;;;;;;5076569;28;20028;-79
2021/03/08 00:43:27;;;;;;;27.63;20.50;;;12.90;78.10;;;;;;5076436;28;20029;-77
2021/03/08 00:45:53;;;;;;;26.65;21.10;;;12.90;78.00;;;;;;5076389;28;20036;-77
2021/03/08 00:48:19;;;;;;;29.48;23.42;;;12.80;78.20;;;;;;5076444;28;20380;-79
2021/03/08 00:50:44;;;;;;;30.58;23.92;;;12.80;78.70;;;;;;5076774;28;20036;-79
2021/03/08 00:53:10;;;;;;;30.65;22.05;;;12.80;78.70;;;;;;5076119;28;20024;-78
2021/03/08 00:55:36;;;;;;;34.47;23.88;;;12.80;78.80;;;;;;5078558;28;20025;-77
2021/03/08 00:58:02;;;;;;;27.73;21.05;;;12.70;79.00;;;;;;5076763;28;20029;-79
2021/03/08 01:00:29;;;;;;;28.05;21.55;;;12.80;79.10;;;;;;5075977;28;20039;-72
2021/03/08 01:02:56;;;;;;;27.05;20.67;;;12.80;79.10;;;;;;5075907;28;20032;-72
2021/03/08 01:05:22;;;;;;;22.45;17.98;;;12.80;79.00;;;;;;5075855;28;20103;-71
2021/03/08 01:07:47;;;;;;;21.35;17.77;;;12.70;79.00;;;;;;5075981;28;20126;-72
2021/03/08 01:10:17;;;;;;;23.88;17.35;;;12.70;79.40;;;;;;5075678;28;20513;-72
2021/03/08 01:12:43;;;;;;;25.92;16.17;;;12.70;79.10;;;;;;5057672;28;20025;-74
2021/03/08 01:15:10;;;;;;;21.52;16.50;;;12.80;79.30;;;;;;5075355;28;20028;-71
2021/03/08 01:17:37;;;;;;;20.98;15.57;;;12.70;79.00;;;;;;5075151;28;20045;-71
2021/03/08 01:20:10;;;;;;;21.55;15.15;;;12.80;79.30;;;;;;5075032;28;20062;-71
2021/03/08 01:22:36;;;;;;;19.23;14.68;;;12.80;79.00;;;;;;5075520;28;20028;-71
2021/03/08 01:25:38;;;;;;;22.77;15.95;;;12.80;79.10;;;;;;5075260;28;20028;-70
2021/03/08 01:28:04;;;;;;;20.08;14.65;;;12.80;79.50;;;;;;5032697;28;20542;-71
2021/03/08 01:30:37;;;;;;;18.48;14.30;;;12.80;79.10;;;;;;5066688;28;20025;-70
2021/03/08 01:33:03;;;;;;;17.83;14.38;;;12.80;78.90;;;;;;5075673;28;20090;-70
2021/03/08 01:35:29;;;;;;;21.85;14.77;;;12.70;78.70;;;;;;5075078;28;20059;-71
2021/03/08 01:37:55;;;;;;;18.23;13.75;;;12.70;79.10;;;;;;5075261;28;20029;-70
2021/03/08 01:40:23;;;;;;;21.02;13.68;;;12.80;78.90;;;;;;5075188;28;20089;-70
2021/03/08 01:42:49;;;;;;;19.13;13.60;;;12.80;78.50;;;;;;5074965;28;20049;-71
2021/03/08 01:45:17;;;;;;;19.17;13.68;;;12.80;78.40;;;;;;5074900;28;20024;-71
2021/03/08 01:47:44;;;;;;;17.55;13.95;;;12.80;78.50;;;;;;5075161;28;20044;-70
2021/03/08 01:50:23;;;;;;;19.33;12.98;;;12.90;78.40;;;;;;5075016;28;20382;-70
2021/03/08 01:52:51;;;;;;;21.35;12.82;;;12.90;78.20;;;;;;5074622;28;20417;-70
2021/03/08 01:55:17;;;;;;;20.05;13.40;;;12.80;78.30;;;;;;5074695;28;20024;-71
2021/03/08 01:57:43;;;;;;;20.75;12.93;;;12.90;78.20;;;;;;5074543;28;20028;-70
2021/03/08 02:00:10;;;;;;;15.90;11.73;;;12.90;78.00;;;;;;5074463;28;20036;-72
2021/03/08 02:02:35;;;;;;;17.17;11.38;;;13.00;77.80;;;;;;5074370;28;20035;-70
2021/03/08 02:05:03;;;;;;;17.00;11.55;;;13.00;77.50;;;;;;5074667;28;20377;-70
2021/03/08 02:07:28;;;;;;;16.23;11.65;;;13.10;77.50;;;;;;5074459;28;20083;-72
2021/03/08 02:09:54;;;;;;;19.58;12.25;;;13.10;77.40;;;;;;5074325;28;20551;-70
2021/03/08 02:12:33;;;;;;;17.35;11.75;;;13.10;77.40;;;;;;5074354;28;20021;-72
2021/03/08 02:15:11;;;;;;;14.20;11.18;;;13.00;77.80;;;;;;5073929;28;20033;-70
2021/03/08 02:18:01;;;;;;;15.70;10.45;;;13.10;77.60;;;;;;5074090;28;20044;-70
2021/03/08 02:20:30;;;;;;;16.55;10.68;;;13.10;78.20;;;;;;5074198;28;20359;-71
2021/03/08 02:23:28;;;;;;;17.35;9.55;;;12.90;77.70;;;;;;5073672;28;20040;-70
2021/03/08 02:26:08;;;;;;;13.48;6.65;;;12.90;77.80;;;;;;5073733;28;20485;-71
2021/03/08 02:29:02;;;;;;;9.88;6.38;;;12.80;77.60;;;;;;5074624;28;20024;-70
2021/03/08 02:31:48;;;;;;;15.82;7.20;;;12.90;77.70;;;;;;5074069;28;20044;-71
2021/03/08 02:34:24;;;;;;;13.10;7.53;;;12.90;77.10;;;;;;5073291;28;20089;-71
2021/03/08 02:36:56;;;;;;;11.00;6.68;;;12.90;77.40;;;;;;5074173;28;20462;-71
2021/03/08 02:39:35;;;;;;;11.88;7.10;;;12.90;77.10;;;;;;5073569;28;20572;-70
2021/03/08 02:42:03;;;;;;;9.60;6.32;;;12.90;77.80;;;;;;5074183;28;20433;-71
2021/03/08 02:44:36;;;;;;;16.13;7.35;;;12.90;77.20;;;;;;5073528;28;20025;-71
2021/03/08 02:47:02;;;;;;;12.18;6.93;;;12.90;77.40;;;;;;5073586;28;20058;-70
2021/03/08 02:49:31;;;;;;;12.73;7.68;;;12.90;77.50;;;;;;5073662;28;20032;-69
2021/03/08 02:52:09;;;;;;;11.60;6.80;;;12.90;77.70;;;;;;5073549;28;20029;-70
2021/03/08 02:54:40;;;;;;;12.52;7.13;;;12.90;77.60;;;;;;5073571;28;20025;-71
2021/03/08 02:57:09;;;;;;;12.18;7.18;;;12.90;77.70;;;;;;5073583;28;20020;-71
2021/03/08 02:59:42;;;;;;;13.23;6.85;;;13.00;77.60;;;;;;5073350;28;20025;-70
2021/03/08 03:02:09;;;;;;;11.90;6.72;;;12.90;77.30;;;;;;5073652;28;20024;-71
2021/03/08 03:04:37;;;;;;;12.27;6.15;;;12.90;77.80;;;;;;5073766;28;20488;-70
2021/03/08 03:07:05;;;;;;;10.55;5.85;;;12.90;77.80;;;;;;5073401;28;20108;-70
2021/03/08 03:09:33;;;;;;;9.88;5.28;;;13.00;77.60;;;;;;5073464;28;20069;-71
2021/03/08 03:12:00;;;;;;;7.85;4.65;;;13.00;77.80;;;;;;5073223;28;20081;-70
2021/03/08 03:14:27;;;;;;;9.85;5.57;;;13.00;77.70;;;;;;5073450;28;20028;-70
2021/03/08 03:17:04;;;;;;;8.80;5.00;;;13.00;77.50;;;;;;5072978;28;20045;-70
2021/03/08 03:19:33;;;;;;;10.73;4.88;;;12.80;77.40;;;;;;5073375;28;20024;-70
2021/03/08 03:22:01;;;;;;;10.60;5.40;;;12.80;78.00;;;;;;5073344;28;20047;-71
2021/03/08 03:24:29;;;;;;;7.88;4.63;;;12.70;78.00;;;;;;5073172;28;20009;-71
2021/03/08 03:26:56;;;;;;;10.35;4.65;;;12.60;78.10;;;;;;5073964;28;20024;-77
2021/03/08 03:29:23;;;;;;;7.80;4.05;;;12.60;78.30;;;;;;5055691;28;20040;-76
2021/03/08 03:31:49;;;;;;;7.68;4.07;;;12.60;78.40;;;;;;5073923;28;20021;-77
2021/03/08 03:34:18;;;;;;;9.75;5.05;;;12.60;78.70;;;;;;5073794;28;20025;-77
2021/03/08 03:36:46;;;;;;;7.85;4.50;;;12.60;78.90;;;;;;5073977;28;20485;-76
2021/03/08 03:39:12;;;;;;;8.00;4.65;;;12.60;79.00;;;;;;5073717;28;20052;-77
2021/03/08 03:41:39;;;;;;;8.48;4.78;;;12.60;79.30;;;;;;5073705;28;20431;-78
2021/03/08 03:44:07;;;;;;;8.82;4.65;;;12.70;79.30;;;;;;5073476;28;20127;-76
2021/03/08 03:46:37;;;;;;;9.50;4.82;;;12.70;79.10;;;;;;5073622;28;20043;-77
2021/03/08 03:49:03;;;;;;;8.90;4.95;;;12.70;79.20;;;;;;5073705;28;20020;-75
2021/03/08 03:51:28;;;;;;;9.32;4.97;;;12.70;79.30;;;;;;5077793;28;20032;-75
2021/03/08 03:53:54;;;;;;;8.88;4.63;;;12.70;79.10;;;;;;5059711;28;20032;-76
2021/03/08 03:56:25;;;;;;;8.38;4.22;;;12.60;79.20;;;;;;5077346;28;20110;-78
2021/03/08 03:59:02;;;;;;;7.55;3.88;;;12.60;79.20;;;;;;5077602;28;20024;-76
2021/03/08 04:01:35;;;;;;;7.65;3.70;;;12.50;79.50;;;;;;5077506;28;20107;-77
2021/03/08 04:04:10;;;;;;;7.20;3.63;;;12.50;78.80;;;;;;5077555;28;20493;-72
2021/03/08 04:06:46;;;;;;;7.53;3.50;;;12.50;79.00;;;;;;5077195;28;20025;-77
2021/03/08 04:09:13;;;;;;;7.90;3.30;;;12.50;78.70;;;;;;5077407;28;20017;-76
2021/03/08 04:11:40;;;;;;;6.68;3.72;;;12.50;79.10;;;;;;5077261;28;20024;-76
2021/03/08 04:14:06;;;;;;;8.00;3.90;;;12.60;78.50;;;;;;5076999;28;20049;-72
2021/03/08 04:16:36;;;;;;;8.43;3.70;;;12.70;78.80;;;;;;5076642;28;20065;-72
2021/03/08 04:19:03;;;;;;;6.40;3.33;;;12.60;78.30;;;;;;5076780;28;20099;-70
2021/03/08 04:21:34;;;;;;;7.25;3.80;;;12.60;78.20;;;;;;5076882;28;20384;-73
2021/03/08 04:24:01;;;;;;;8.13;4.50;;;12.60;78.30;;;;;;5076666;28;20067;-71
2021/03/08 04:26:27;;;;;;;8.73;4.13;;;12.50;78.20;;;;;;5058642;28;20020;-71
2021/03/08 04:28:53;;;;;;;9.57;4.80;;;12.40;78.70;;;;;;5078054;28;20108;-71
2021/03/08 04:31:19;;;;;;;7.95;4.28;;;12.30;78.80;;;;;;5078596;28;20045;-72
2021/03/08 04:33:46;;;;;;;9.80;4.95;;;12.30;79.10;;;;;;5076502;28;20028;-71
2021/03/08 04:36:15;;;;;;;10.30;4.82;;;12.30;79.20;;;;;;5076415;28;20111;-71
2021/03/08 04:38:42;;;;;;;7.78;4.85;;;12.30;78.70;;;;;;5076451;28;20066;-70
2021/03/08 04:41:10;;;;;;;8.82;5.05;;;12.40;78.80;;;;;;5076421;28;20033;-70
2021/03/08 04:43:38;;;;;;;10.75;5.05;;;12.40;79.00;;;;;;5076290;28;20081;-71
2021/03/08 04:46:04;;;;;;;10.07;5.43;;;12.40;78.70;;;;;;5058042;28;20485;-70
2021/03/08 04:48:32;;;;;;;9.60;5.40;;;12.30;78.60;;;;;;5076209;28;20040;-73
2021/03/08 04:50:58;;;;;;;9.27;5.78;;;12.20;78.60;;;;;;5076240;28;20024;-71
2021/03/08 04:53:24;;;;;;;9.57;5.38;;;12.10;78.60;;;;;;5075955;28;20028;-72
2021/03/08 04:55:53;;;;;;;10.23;5.97;;;12.10;79.00;;;;;;5075877;28;20579;-73
2021/03/08 04:58:19;;;;;;;9.95;5.70;;;12.10;79.20;;;;;;5075987;28;20044;-71
2021/03/08 05:00:45;;;;;;;9.15;5.95;;;12.10;79.90;;;;;;5074890;28;20115;-70
2021/03/08 05:03:13;;;;;;;8.35;5.40;;;12.20;79.80;;;;;;5075420;28;20158;-74
2021/03/08 05:05:39;;;;;;;12.00;7.00;;;12.10;79.30;;;;;;5075707;28;20040;-74
2021/03/08 05:08:07;;;;;;;13.18;6.20;;;12.10;79.90;;;;;;5075973;28;20024;-71
2021/03/08 05:10:37;;;;;;;10.85;6.10;;;12.00;80.00;;;;;;5075686;28;20028;-73
2021/03/08 05:13:09;;;;;;;10.15;6.35;;;12.00;80.80;;;;;;5075818;28;20013;-70
2021/03/08 05:15:36;;;;;;;12.30;6.30;;;12.10;80.90;;;;;;5075701;28;20028;-71
2021/03/08 05:18:04;;;;;;;14.07;6.30;;;12.20;80.20;;;;;;5075547;28;20123;-72
2021/03/08 05:20:31;;;;;;;10.82;6.28;;;12.20;79.70;;;;;;5075569;28;20374;-75
2021/03/08 05:22:58;;;;;;;19.80;7.07;;;12.30;80.00;;;;;;5057285;28;20078;-71
2021/03/08 05:25:25;;;;;;;9.88;6.38;;;12.30;79.90;;;;;;5075153;28;20539;-70
2021/03/08 05:27:52;;;;;;;9.82;6.95;;;12.30;79.80;;;;;;5075212;28;20042;-71
2021/03/08 05:30:20;;;;;;;10.27;6.47;;;12.30;79.60;;;;;;5075754;28;20039;-76
2021/03/08 05:32:55;;;;;;;14.55;7.13;;;12.30;79.80;;;;;;5075659;28;20031;-72
2021/03/08 05:35:23;;;;;;;15.85;6.60;;;12.30;79.90;;;;;;5075056;28;20091;-71
2021/03/08 05:37:50;;;;;;;10.57;6.70;;;12.30;79.50;;;;;;5075080;28;20054;-72
2021/03/08 05:40:44;;;;;;;11.75;6.80;;;12.40;79.90;;;;;;5075205;28;20087;-71
2021/03/08 05:43:11;;;;;;;;;;;12.30;79.80;;;;;;5075639;28;20044;-73
2021/03/08 05:45:59;;;;;;;27.90;7.40;;;12.30;79.90;;;;;;5075047;28;19912;-76
2021/03/08 05:48:46;;;;;;;12.38;7.72;;;12.40;79.50;;;;;;5074960;28;20070;-71
2021/03/08 05:51:34;;;;;;;20.48;7.95;;;12.40;79.10;;;;;;5074963;28;20029;-73
2021/03/08 05:54:37;;;;;;;13.15;7.35;;;12.40;79.70;;;;;;5074740;28;20025;-73
2021/03/08 05:57:30;;;;;;;12.07;7.00;;;12.20;79.70;;;;;;5056233;28;20430;-71
2021/03/08 06:00:01;;;;;;;14.20;7.50;;;12.20;79.80;;;;;;5074225;28;20040;-71
2021/03/08 06:02:46;;;;;;;11.98;6.95;;;12.20;79.30;;;;;;5074230;28;20025;-71
2021/03/08 06:06:04;;;;;;;11.18;7.15;;;12.20;80.00;;;;;;5074713;28;20033;-71
2021/03/08 06:08:43;;;;;;;16.65;8.15;;;12.30;80.30;;;;;;5002957;28;20598;-70
2021/03/08 06:11:10;;;;;;;13.82;8.02;;;12.30;79.90;;;;;;5074584;28;20060;-71
2021/03/08 06:13:47;;;;;;;11.02;6.40;;;12.40;79.50;;;;;;5074376;28;20031;-71
2021/03/08 06:16:19;;;;;;;10.23;6.65;;;12.50;79.40;;;;;;5074063;28;20072;-70
2021/03/08 06:18:47;;;;;;;10.52;6.22;;;12.50;78.60;;;;;;5074484;28;20485;-71
2021/03/08 06:21:16;;;;;;;10.65;6.43;;;12.50;78.20;;;;;;5074098;28;20035;-71
2021/03/08 06:23:45;;;;;;;14.07;6.75;;;12.50;78.30;;;;;;5074098;28;20032;-72
2021/03/08 06:26:14;;;;;;;13.93;5.95;;;12.60;78.30;;;;;;5074317;28;20020;-74
2021/03/08 06:28:40;;;;;;;13.80;6.55;;;12.60;78.10;;;;;;5074170;28;20052;-78
2021/03/08 06:31:07;;;;;;;13.30;6.65;;;12.70;78.60;;;;;;5074172;28;20496;-71
2021/03/08 06:33:34;;;;;;;11.27;6.28;;;12.80;78.10;;;;;;5074306;28;20028;-76
2021/03/08 06:36:01;;;;;;;11.77;6.65;;;12.80;77.90;;;;;;5073878;28;20081;-72
2021/03/08 06:38:28;;;;;;;10.85;6.22;;;12.90;77.90;;;;;;5074036;28;20418;-70
2021/03/08 06:40:54;;;;;;;9.90;5.90;;;12.80;77.40;;;;;;5073485;28;20147;-71
2021/03/08 06:43:20;;;;;;;12.73;5.00;;;12.80;77.60;;;;;;5074042;28;20091;-70
2021/03/08 06:45:46;;;;;;;14.43;5.50;;;12.70;77.30;;;;;;5073492;28;20024;-71
2021/03/08 06:48:12;;;;;;;10.77;5.70;;;12.70;77.30;;;;;;5073559;28;20103;-71
2021/03/08 06:50:39;;;;;;;11.25;5.43;;;12.70;77.50;;;;;;5073637;28;20110;-77
2021/03/08 06:53:04;;;;;;;15.00;5.90;;;12.80;77.60;;;;;;5073862;28;20016;-77
2021/03/08 06:55:31;;;;;;;11.60;6.40;;;12.80;77.30;;;;;;5074034;28;20035;-78
2021/03/08 06:58:16;;;;;;;11.48;5.80;;;12.90;77.40;;;;;;5074931;28;20029;-74
2021/03/08 07:00:42;;;;;;;13.65;6.80;;;12.90;77.30;;;;;;5077764;28;20040;-75
2021/03/08 07:03:33;;;;;;;16.70;6.68;;;12.90;77.60;;;;;;5075393;28;20055;-78
2021/03/08 07:06:17;;;;;;;14.40;6.47;;;13.00;77.60;;;;;;5056018;28;20523;-77
2021/03/08 07:08:45;;;;;;;13.20;6.22;;;12.90;77.60;;;;;;5073457;28;20027;-78
2021/03/08 07:11:23;;;;;;;18.65;7.20;;;13.00;77.70;;;;;;5073510;28;20021;-77
2021/03/08 07:13:50;;;;;;;12.57;6.70;;;13.10;77.70;;;;;;5073249;28;20043;-79
2021/03/08 07:16:17;;;;;;;11.85;7.25;;;13.10;78.10;;;;;;5072997;28;20045;-80
2021/03/08 07:18:43;;;;;;;12.93;7.22;;;13.10;78.00;;;;;;5074054;28;20025;-77
2021/03/08 07:21:12;;;;;;;13.70;7.35;;;13.10;78.10;;;;;;5073633;28;20036;-79
2021/03/08 07:23:38;;;;;;;13.82;7.13;;;13.10;78.20;;;;;;5074456;28;20056;-79
2021/03/08 07:26:06;;;;;;;14.88;7.45;;;13.10;78.40;;;;;;5074994;28;20377;-73
2021/03/08 07:28:32;;;;;;;14.77;7.55;;;13.10;78.60;;;;;;5073462;28;20056;-73
2021/03/08 07:30:57;;;;;;;14.45;7.40;;;13.10;78.60;;;;;;5073589;28;20017;-72
2021/03/08 07:33:24;;;;;;;15.93;8.00;;;13.00;78.70;;;;;;5073505;28;20101;-72
2021/03/08 07:35:53;;;;;;;18.20;8.45;;;12.90;79.20;;;;;;5072974;28;20161;-72
2021/03/08 07:38:34;;;;;;;14.82;8.57;;;12.90;79.50;;;;;;5073205;28;20036;-77
2021/03/08 07:41:20;;;;;;;15.90;8.95;;;13.00;79.50;;;;;;5073224;28;20393;-75
2021/03/08 07:43:48;;;;;;;14.63;8.80;;;13.10;80.00;;;;;;5072895;28;20017;-72
2021/03/08 07:46:34;;;;;;;15.05;8.63;;;13.20;79.60;;;;;;5072531;28;20469;-73
2021/03/08 07:49:03;;;;;;;16.33;9.15;;;13.10;79.40;;;;;;5074954;28;20025;-73
2021/03/08 07:51:29;;;;;;;13.65;8.70;;;13.20;79.70;;;;;;5073247;28;20031;-75
2021/03/08 07:54:05;;;;;;;16.02;9.13;;;13.20;80.00;;;;;;5073038;28;20095;-79
2021/03/08 07:56:32;;;;;;;14.70;8.00;;;13.20;79.90;;;;;;5072905;28;20033;-72
2021/03/08 07:58:58;;;;;;;15.48;8.07;;;13.10;79.50;;;;;;5054961;28;20474;-72
2021/03/08 08:01:25;;;;;;;13.80;8.07;;;13.10;80.00;;;;;;5072778;28;20040;-73
2021/03/08 08:03:52;;;;;;;10.95;7.10;;;13.10;79.90;;;;;;5072639;28;20031;-75
2021/03/08 08:06:23;;;;;;;14.73;8.20;;;13.20;79.80;;;;;;5072927;28;20043;-75
2021/03/08 08:08:56;;;;;;;13.65;7.97;;;13.10;79.80;;;;;;5073122;28;20094;-74
2021/03/08 08:11:27;;;;;;;11.65;7.38;;;13.20;79.80;;;;;;5073047;28;20032;-72
2021/03/08 08:14:00;;;;;;;13.90;7.60;;;13.10;79.40;;;;;;5072768;28;20021;-73
2021/03/08 08:16:30;;;;;;;13.55;7.00;;;13.10;79.40;;;;;;5072414;28;20055;-75
2021/03/08 08:19:06;;;;;;;11.43;6.90;;;13.20;79.20;;;;;;5072818;28;20041;-72
2021/03/08 08:21:36;;;;;;;12.88;7.38;;;13.20;79.30;;;;;;5054403;28;20040;-75
2021/03/08 08:24:06;;;;;;;11.57;7.15;;;13.20;79.10;;;;;;5072584;28;20469;-74
2021/03/08 08:26:32;;;;;;;12.00;7.28;;;13.20;79.10;;;;;;5072673;28;20429;-74
2021/03/08 08:28:59;;;;;;;13.00;7.05;;;13.30;79.00;;;;;;5072220;28;20032;-72
2021/03/08 08:31:26;;;;;;;12.85;7.38;;;13.30;78.80;;;;;;5072683;28;20082;-74
2021/03/08 08:33:52;;;;;;;15.35;7.30;;;13.30;78.70;;;;;;5072469;28;20046;-73
2021/03/08 08:36:24;;;;;;;11.40;7.00;;;13.20;78.80;;;;;;5074370;28;20067;-75
2021/03/08 08:38:53;;;;;;;12.57;7.70;;;13.30;78.90;;;;;;5057934;28;20024;-73
2021/03/08 08:41:23;;;;;;;12.48;7.47;;;13.30;78.60;;;;;;5075968;28;20074;-72
2021/03/08 08:44:14;;;;;;;13.02;7.18;;;13.30;78.80;;;;;;5076019;28;20029;-73
2021/03/08 08:46:42;;;;;;;14.68;7.07;;;13.30;78.90;;;;;;5057574;28;20070;-72
2021/03/08 08:49:12;;;;;;;13.30;7.03;;;13.40;78.90;;;;;;5075714;28;20052;-78
2021/03/08 08:51:55;;;;;;;13.27;7.10;;;13.40;78.90;;;;;;5075945;28;20028;-73
2021/03/08 08:54:27;;;;;;;11.32;7.75;;;13.40;79.00;;;;;;5075883;28;20029;-73
2021/03/08 08:57:13;;;;;;;12.00;7.00;;;13.50;79.00;;;;;;5057627;28;20029;-73
2021/03/08 08:59:48;;;;;;;10.43;6.60;;;13.50;78.80;;;;;;5075166;28;20098;-76
2021/03/08 09:02:22;;;;;;;10.55;6.03;;;13.50;78.60;;;;;;5075347;28;20454;-73
2021/03/08 09:04:48;;;;;;;11.15;6.32;;;13.50;78.80;;;;;;5075806;28;20120;-73
2021/03/08 09:07:22;;;;;;;12.30;6.15;;;13.50;78.60;;;;;;5075678;28;20052;-72
2021/03/08 09:09:48;;;;;;;10.38;7.13;;;13.40;78.50;;;;;;5075456;28;20374;-72
2021/03/08 09:12:34;;;;;;;12.85;6.38;;;13.40;78.90;;;;;;5075242;28;20043;-74
2021/03/08 09:15:04;;;;;;;13.15;6.13;;;13.40;78.80;;;;;;5075514;28;20025;-75
2021/03/08 09:17:46;;;;;;;8.80;5.53;;;13.50;78.80;;;;;;5075319;28;20056;-75
2021/03/08 09:20:12;;;;;;;12.73;6.40;;;13.50;78.90;;;;;;5075140;28;20032;-73
2021/03/08 09:22:46;;;;;;;10.35;6.45;;;13.50;78.70;;;;;;5075270;28;20095;-72
2021/03/08 09:25:23;;;;;;;11.98;6.22;;;13.50;78.60;;;;;;5074980;28;20401;-72
2021/03/08 09:28:10;;;;;;;11.32;6.57;;;13.60;78.70;;;;;;5075265;28;20501;-71
2021/03/08 09:30:48;;;;;;;14.63;6.65;;;13.60;78.80;;;;;;5075139;28;20550;-72
2021/03/08 09:33:18;;;;;;;14.52;7.10;;;13.60;78.60;;;;;;5074338;28;20399;-73
2021/03/08 09:35:56;;;;;;;11.20;7.18;;;13.60;78.60;;;;;;5074580;28;20082;-74
2021/03/08 09:38:27;;;;;;;13.35;7.03;;;13.60;78.80;;;;;;5074564;28;20029;-75
2021/03/08 09:40:58;;;;;;;10.43;6.28;;;13.60;78.80;;;;;;5074416;28;20028;-71
2021/03/08 09:43:32;;;;;;;12.48;7.32;;;13.60;78.70;;;;;;5074721;28;20031;-71
2021/03/08 09:46:04;;;;;;;13.68;6.35;;;13.50;78.80;;;;;;5074109;28;20033;-72
2021/03/08 09:48:31;;;;;;;12.52;7.03;;;13.50;78.80;;;;;;5073434;28;20025;-72
2021/03/08 09:51:06;;;;;;;12.27;6.63;;;13.60;78.90;;;;;;5074230;28;20028;-72
2021/03/08 09:53:39;;;;;;;10.38;6.50;;;13.60;78.70;;;;;;5074221;28;20016;-72
2021/03/08 09:56:14;;;;;;;11.05;5.90;;;13.60;78.60;;;;;;5074032;28;20046;-71
2021/03/08 09:58:41;;;;;;;12.25;6.28;;;13.60;78.60;;;;;;5074087;28;20029;-72
2021/03/08 10:01:13;;;;;;;10.55;5.70;;;13.60;78.30;;;;;;5073874;28;20119;-71
2021/03/08 10:03:39;;;;;;;15.02;6.05;;;13.60;78.30;;;;;;5074199;28;20031;-71
2021/03/08 10:06:05;;;;;;;9.13;5.32;;;13.70;78.10;;;;;;5073925;28;20021;-71
2021/03/08 10:08:31;;;;;;;10.52;5.07;;;13.70;78.20;;;;;;5074005;28;20420;-71
2021/03/08 10:10:58;;;;;;;9.73;5.57;;;13.70;78.40;;;;;;5073815;28;20074;-72
2021/03/08 10:13:25;;;;;;;8.50;5.57;;;13.70;77.80;;;;;;5073518;28;20097;-71
2021/03/08 10:15:53;;;;;;;9.85;5.15;;;13.80;77.80;;;;;;5073892;28;20041;-77
2021/03/08 10:18:27;;;;;;;9.25;6.18;;;13.80;77.70;;;;;;5074258;28;20063;-77
2021/03/08 10:20:57;;;;;;;9.35;5.90;;;13.80;77.60;;;;;;5073966;28;20035;-76
2021/03/08 10:23:24;;;;;;;10.25;4.82;;;13.70;77.80;;;;;;5074307;28;20515;-76
2021/03/08 10:25:51;;;;;;;8.32;4.82;;;13.70;77.90;;;;;;5074412;28;20044;-75
2021/03/08 10:28:18;;;;;;;7.72;4.75;;;13.70;77.80;;;;;;5075213;28;20431;-77
2021/03/08 10:30:44;;;;;;;10.88;4.88;;;13.70;77.60;;;;;;5074203;28;20029;-75
2021/03/08 10:33:16;;;;;;;7.88;4.40;;;13.70;77.60;;;;;;5039358;28;20024;-78
2021/03/08 10:35:43;;;;;;;6.28;4.65;;;13.80;77.70;;;;;;5073666;28;20050;-78
2021/03/08 10:38:10;;;;;;;6.55;4.60;;;13.70;77.20;;;;;;5055452;28;20112;-72
2021/03/08 10:40:37;;;;;;;10.15;4.35;;;13.80;77.50;;;;;;5073472;28;20035;-70
2021/03/08 10:43:03;;;;;;;8.65;5.05;;;13.70;77.10;;;;;;5055225;28;20029;-71
2021/03/08 10:45:30;;;;;;;8.52;4.60;;;13.70;77.30;;;;;;5073363;28;20096;-73
2021/03/08 10:48:05;;;;;;;8.00;4.47;;;13.70;77.40;;;;;;5055394;28;20104;-71
2021/03/08 10:50:50;;;;;;;9.10;4.57;;;13.70;77.30;;;;;;5073960;28;20040;-76
2021/03/08 10:53:18;;;;;;;9.57;5.00;;;13.80;77.40;;;;;;5074087;28;20017;-74
2021/03/08 10:55:45;;;;;;;8.32;5.57;;;13.90;77.30;;;;;;5074717;28;20028;-76
2021/03/08 10:58:11;;;;;;;8.10;4.68;;;13.90;77.00;;;;;;5074289;28;20017;-78
2021/03/08 11:00:38;;;;;;;9.45;4.30;;;14.00;77.00;;;;;;5073457;28;20036;-78
2021/03/08 11:03:04;;;;;;;7.38;3.92;;;14.00;76.50;;;;;;5073580;28;20086;-78
2021/03/08 11:05:32;;;;;;;6.63;4.05;;;14.00;76.30;;;;;;5055929;28;20484;-74
2021/03/08 11:07:58;;;;;;;8.32;4.30;;;13.90;76.50;;;;;;5073663;28;20013;-76
2021/03/08 11:10:32;;;;;;;8.50;4.40;;;13.90;76.70;;;;;;5055539;28;20339;-73
2021/03/08 11:12:59;;;;;;;8.18;4.65;;;13.90;76.80;;;;;;5073368;28;20032;-73
2021/03/08 11:15:25;;;;;;;7.68;4.32;;;13.90;76.70;;;;;;5073237;28;20025;-76
2021/03/08 11:17:51;;;;;;;7.63;4.40;;;13.80;76.80;;;;;;5073377;28;20085;-73
2021/03/08 11:20:22;;;;;;;7.45;4.50;;;13.70;76.70;;;;;;5073521;28;20036;-80
2021/03/08 11:23:04;;;;;;;6.65;4.28;;;13.70;77.00;;;;;;5073227;28;20019;-79
2021/03/08 11:25:50;;;;;;;9.23;4.60;;;13.60;77.10;;;;;;5073272;28;20050;-76
2021/03/08 11:28:17;;;;;;;8.70;5.00;;;13.60;77.40;;;;;;5072813;28;20040;-76
2021/03/08 11:30:50;;;;;;;9.80;5.50;;;13.70;77.40;;;;;;5073095;28;20584;-79
2021/03/08 11:33:16;;;;;;;7.50;4.70;;;13.70;77.80;;;;;;5073260;28;20489;-78
2021/03/08 11:35:48;;;;;;;8.30;4.55;;;13.70;77.40;;;;;;5073031;28;20086;-76
2021/03/08 11:38:15;;;;;;;10.05;4.93;;;13.70;77.50;;;;;;5072831;28;20021;-75
2021/03/08 11:40:46;;;;;;;11.40;4.72;;;13.70;77.50;;;;;;5073449;28;20478;-76
2021/03/08 11:43:15;;;;;;;9.23;4.43;;;13.60;77.20;;;;;;5072891;28;20535;-76
2021/03/08 11:45:41;;;;;;;7.78;4.50;;;13.50;77.30;;;;;;5072428;28;20020;-75
2021/03/08 11:48:08;;;;;;;10.23;5.03;;;13.50;77.80;;;;;;5072621;28;20032;-78
2021/03/08 11:50:35;;;;;;;11.35;5.07;;;13.50;77.80;;;;;;5072347;28;20067;-78
2021/03/08 11:53:02;;;;;;;9.13;5.18;;;13.50;77.90;;;;;;5072277;28;20481;-78
2021/03/08 11:55:27;;;;;;;13.85;5.63;;;13.50;78.00;;;;;;5072034;28;20028;-76
2021/03/08 11:57:53;;;;;;;8.27;4.70;;;13.50;77.80;;;;;;5072538;28;20051;-73
2021/03/08 12:00:22;;;;;;;11.13;6.40;;;13.50;77.80;;;;;;5072424;28;20021;-78
2021/03/08 12:02:49;;;;;;;11.68;5.00;;;13.50;78.10;;;;;;5071976;28;20028;-75
2021/03/08 12:05:15;;;;;;;8.45;4.88;;;13.50;77.70;;;;;;5072111;28;20025;-74
2021/03/08 12:07:41;;;;;;;12.75;5.88;;;13.40;77.70;;;;;;5072390;28;20021;-72
2021/03/08 12:10:09;;;;;;;9.27;5.88;;;13.40;77.80;;;;;;5072352;28;20545;-74
2021/03/08 12:12:35;;;;;;;9.20;6.05;;;13.40;78.10;;;;;;5076275;28;20091;-77
2021/03/08 12:15:05;;;;;;;11.75;5.38;;;13.40;78.10;;;;;;5076135;28;20036;-76
2021/03/08 12:17:31;;;;;;;12.43;5.78;;;13.40;78.10;;;;;;5075722;28;20053;-78
2021/03/08 12:19:57;;;;;;;11.30;5.43;;;13.40;77.80;;;;;;5076135;28;20036;-73
2021/03/08 12:22:23;;;;;;;9.77;4.70;;;13.40;78.20;;;;;;5076344;28;20020;-71
2021/03/08 12:24:48;;;;;;;8.32;4.78;;;13.50;78.10;;;;;;5076252;28;20035;-77
2021/03/08 12:27:15;;;;;;;8.50;5.05;;;13.50;77.70;;;;;;5076144;28;20024;-76
2021/03/08 12:29:40;;;;;;;10.32;5.38;;;13.50;77.70;;;;;;5076098;28;20497;-72
2021/03/08 12:32:07;;;;;;;11.45;5.28;;;13.50;77.90;;;;;;5075747;28;20032;-74
2021/03/08 12:34:33;;;;;;;11.35;5.13;;;13.50;78.00;;;;;;5057999;28;20027;-75
2021/03/08 12:36:59;;;;;;;10.95;4.25;;;13.60;77.70;;;;;;5075962;28;20501;-72
2021/03/08 12:39:25;;;;;;;7.43;3.92;;;13.60;76.70;;;;;;5075949;28;20126;-72
2021/03/08 12:41:51;;;;;;;8.30;4.32;;;13.50;76.30;;;;;;5075785;28;20465;-71
2021/03/08 12:44:17;;;;;;;9.00;4.30;;;13.40;76.60;;;;;;5075778;28;20074;-76
2021/03/08 12:46:42;;;;;;;8.00;4.05;;;13.50;76.80;;;;;;5075750;28;20032;-73
2021/03/08 12:49:08;;;;;;;10.82;4.70;;;13.50;76.70;;;;;;5075433;28;20035;-73
2021/03/08 12:51:34;;;;;;;9.43;4.30;;;13.50;76.50;;;;;;5075475;28;20051;-72
2021/03/08 12:54:00;;;;;;;6.60;3.78;;;13.60;76.50;;;;;;5075543;28;20066;-74